createdAt,value
2022-08-05T00:00:43.122Z,20.85
2022-08-05T00:03:15.851Z,28.77
2022-08-05T00:06:04.959Z,25.70
2022-08-05T00:08:36.190Z,24.90
2022-08-05T00:11:07.505Z,26.95
2022-08-05T00:13:52.839Z,26.27
2022-08-05T00:16:36.235Z,22.88
2022-08-05T00:19:10.151Z,22.73
2022-08-05T00:21:38.736Z,27.40
2022-08-05T00:24:18.902Z,24.08
2022-08-05T00:26:53.253Z,27.83
2022-08-05T00:29:22.430Z,27.10
2022-08-05T00:32:13.508Z,25.60
2022-08-05T00:35:03.775Z,23.50
2022-08-05T00:37:50.355Z,22.95
2022-08-05T00:40:28.352Z,28.63
2022-08-05T00:42:59.061Z,34.77
2022-08-05T00:45:43.194Z,31.30
2022-08-05T00:48:14.007Z,27.65
2022-08-05T00:50:44.316Z,28.15
2022-08-05T00:53:45.267Z,26.92
2022-08-05T00:56:07.958Z,33.28
2022-08-05T00:58:37.163Z,26.45
2022-08-05T01:01:08.832Z,26.67
2022-08-05T01:03:38.329Z,23.85
2022-08-05T01:06:14.010Z,24.05
2022-08-05T01:08:44.809Z,27.23
2022-08-05T01:11:22.659Z,26.40
2022-08-05T01:14:01.489Z,28.35
2022-08-05T01:16:35.330Z,24.45
2022-08-05T01:19:14.178Z,25.13
2022-08-05T01:22:08.088Z,30.50
2022-08-05T01:24:52.953Z,25.40
2022-08-05T01:27:54.971Z,28.25
2022-08-05T01:30:34.279Z,28.30
2022-08-05T01:33:08.623Z,32.95
2022-08-05T01:35:51.855Z,29.13
2022-08-05T01:38:27.545Z,29.20
2022-08-05T01:41:01.436Z,25.83
2022-08-05T01:43:34.316Z,29.42
2022-08-05T01:46:06.919Z,28.15
2022-08-05T01:48:49.540Z,28.02
2022-08-05T01:51:19.946Z,27.08
2022-08-05T01:53:57.571Z,24.65
2022-08-05T01:58:10.213Z,29.95
2022-08-05T02:12:55.036Z,28.25
2022-08-05T02:15:31.170Z,22.73
2022-08-05T02:18:31.408Z,25.92
2022-08-05T02:20:58.699Z,28.02
2022-08-05T02:23:33.531Z,24.65
2022-08-05T02:26:04.564Z,33.80
2022-08-05T02:28:41.549Z,26.35
2022-08-05T02:31:14.810Z,24.00
2022-08-05T02:33:49.427Z,23.73
2022-08-05T02:36:27.923Z,25.90
2022-08-05T02:39:01.503Z,25.63
2022-08-05T02:41:42.976Z,25.95
2022-08-05T02:44:25.889Z,29.42
2022-08-05T02:47:00.428Z,25.45
2022-08-05T02:49:35.631Z,26.38
2022-08-05T02:52:06.726Z,27.80
2022-08-05T02:54:41.258Z,27.42
2022-08-05T02:58:11.881Z,27.73
2022-08-05T03:00:04.408Z,27.27
2022-08-05T03:02:36.379Z,23.23
2022-08-05T03:05:06.557Z,26.58
2022-08-05T03:08:00.612Z,26.75
2022-08-05T03:10:25.869Z,22.70
2022-08-05T03:12:55.210Z,29.10
2022-08-05T03:15:25.415Z,25.13
2022-08-05T03:17:57.829Z,22.50
2022-08-05T03:20:27.882Z,25.73
2022-08-05T03:22:58.163Z,32.45
2022-08-05T03:25:32.587Z,29.02
2022-08-05T03:28:18.483Z,30.17
2022-08-05T03:30:50.878Z,27.10
2022-08-05T03:33:19.812Z,22.88
2022-08-05T03:35:51.946Z,23.75
2022-08-05T03:38:32.811Z,34.45
2022-08-05T03:41:10.840Z,26.27
2022-08-05T03:44:09.702Z,25.10
2022-08-05T03:46:32.575Z,29.67
2022-08-05T03:49:01.834Z,26.27
2022-08-05T03:52:37.708Z,30.08
2022-08-05T03:55:34.061Z,24.52
2022-08-05T03:57:41.552Z,27.52
2022-08-05T04:00:15.611Z,25.42
2022-08-05T04:02:57.640Z,28.02
2022-08-05T04:05:34.083Z,27.42
2022-08-05T04:08:05.676Z,25.00
2022-08-05T04:10:43.753Z,28.30
2022-08-05T04:13:13.465Z,22.77
2022-08-05T04:16:02.774Z,24.25
2022-08-05T04:18:34.401Z,22.48
2022-08-05T04:21:04.157Z,20.73
2022-08-05T04:24:05.738Z,25.27
2022-08-05T04:26:42.853Z,23.30
2022-08-05T04:29:11.410Z,28.58
2022-08-05T04:31:40.522Z,24.27
2022-08-05T04:34:31.204Z,32.08
2022-08-05T04:36:59.104Z,22.80
2022-08-05T04:39:29.543Z,23.02
2022-08-05T04:41:58.077Z,21.00
2022-08-05T04:44:29.925Z,19.25
2022-08-05T04:47:09.677Z,20.00
2022-08-05T04:50:01.445Z,19.40
2022-08-05T04:52:34.978Z,22.20
2022-08-05T05:14:31.992Z,18.27
2022-08-05T05:17:03.378Z,14.48
2022-08-05T05:19:36.306Z,18.70
2022-08-05T05:22:23.797Z,16.73
2022-08-05T05:27:44.867Z,16.45
2022-08-05T05:30:31.495Z,16.67
2022-08-05T05:33:13.996Z,15.98
2022-08-05T05:38:27.518Z,13.93
2022-08-05T05:40:57.233Z,16.48
2022-08-05T05:43:54.202Z,16.13
2022-08-05T05:46:18.147Z,11.75
2022-08-05T05:48:48.969Z,14.63
2022-08-05T05:51:22.820Z,11.73
2022-08-05T05:53:57.226Z,10.45
2022-08-05T05:56:33.065Z,14.50
2022-08-05T05:59:05.443Z,14.73
2022-08-05T06:01:39.819Z,14.88
2022-08-05T06:04:11.871Z,11.85
2022-08-05T06:06:42.897Z,9.35
2022-08-05T06:09:16.736Z,12.75
2022-08-05T06:11:59.575Z,8.93
2022-08-05T06:14:30.692Z,12.48
2022-08-05T06:17:52.376Z,11.63
2022-08-05T06:19:56.882Z,10.25
2022-08-05T06:22:30.308Z,11.30
2022-08-05T06:25:59.408Z,14.32
2022-08-05T06:28:09.282Z,11.95
2022-08-05T06:33:11.422Z,9.18
2022-08-05T06:36:04.022Z,9.65
2022-08-05T06:38:37.149Z,13.10
2022-08-05T06:41:07.790Z,13.43
2022-08-05T06:43:58.580Z,11.75
2022-08-05T06:46:29.720Z,10.68
2022-08-05T06:49:01.670Z,10.02
2022-08-05T06:51:31.562Z,11.20
2022-08-05T06:54:01.746Z,8.55
2022-08-05T06:56:34.354Z,9.80
2022-08-05T06:59:03.901Z,8.50
2022-08-05T07:01:37.491Z,10.50
2022-08-05T07:04:13.997Z,11.63
2022-08-05T07:06:42.764Z,8.93
2022-08-05T07:09:11.287Z,8.63
2022-08-05T07:11:45.504Z,12.05
2022-08-05T07:14:35.888Z,11.52
2022-08-05T07:18:08.755Z,10.88
2022-08-05T07:22:45.778Z,7.03
2022-08-05T07:25:23.515Z,8.52
2022-08-05T07:30:40.759Z,8.50
2022-08-05T07:33:16.479Z,8.35
2022-08-05T07:36:05.386Z,6.95
2022-08-05T07:38:42.896Z,8.50
2022-08-05T07:42:07.698Z,9.55
2022-08-05T07:44:06.613Z,9.85
2022-08-05T07:46:48.310Z,11.98
2022-08-05T07:49:18.779Z,12.93
2022-08-05T07:51:53.520Z,10.20
2022-08-05T07:54:31.639Z,8.38
2022-08-05T07:57:17.815Z,9.20
2022-08-05T07:59:55.339Z,10.73
2022-08-05T08:02:30.797Z,12.30
2022-08-05T08:05:03.300Z,10.35
2022-08-05T08:07:39.573Z,9.27
2022-08-05T08:10:23.260Z,9.93
2022-08-05T08:12:54.865Z,10.23
2022-08-05T08:16:34.352Z,10.13
2022-08-05T08:18:15.847Z,8.85
2022-08-05T08:21:02.081Z,8.65
2022-08-05T08:24:01.605Z,10.45
2022-08-05T08:26:26.591Z,9.68
2022-08-05T08:29:02.361Z,12.65
2022-08-05T08:31:47.352Z,12.45
2022-08-05T08:34:18.717Z,9.38
2022-08-05T08:37:05.336Z,9.15
2022-08-05T08:39:37.627Z,8.77
2022-08-05T08:42:32.313Z,7.00
2022-08-05T08:45:18.599Z,9.82
2022-08-05T08:48:06.848Z,10.10
2022-08-05T08:51:07.510Z,8.70
2022-08-05T08:53:30.413Z,12.25
2022-08-05T08:56:06.220Z,12.13
2022-08-05T08:58:37.660Z,8.23
2022-08-05T09:01:16.569Z,9.25
2022-08-05T09:06:50.000Z,7.40
2022-08-05T09:09:20.318Z,10.40
2022-08-05T09:11:55.293Z,6.93
2022-08-05T09:14:57.982Z,10.00
2022-08-05T09:17:42.768Z,8.15
2022-08-05T09:20:09.059Z,7.95
2022-08-05T09:23:18.887Z,8.93
2022-08-05T09:26:02.611Z,11.15
2022-08-05T09:28:53.246Z,8.18
2022-08-05T09:32:42.167Z,9.07
2022-08-05T09:37:02.791Z,8.98
2022-08-05T09:39:52.122Z,8.93
2022-08-05T09:42:28.463Z,7.85
2022-08-05T09:46:05.301Z,10.18
2022-08-05T09:47:58.325Z,10.48
2022-08-05T09:50:38.599Z,8.48
2022-08-05T09:53:25.828Z,9.75
2022-08-05T09:56:04.500Z,6.88
2022-08-05T09:58:43.847Z,7.28
2022-08-05T10:01:32.159Z,7.40
2022-08-05T10:04:11.818Z,6.72
2022-08-05T10:07:21.067Z,9.32
2022-08-05T10:10:28.108Z,6.70
2022-08-05T10:13:16.363Z,7.28
2022-08-05T10:15:47.384Z,6.75
2022-08-05T10:18:22.690Z,7.57
2022-08-05T10:21:16.619Z,8.13
2022-08-05T10:23:59.329Z,6.13
2022-08-05T10:26:32.434Z,9.77
2022-08-05T10:29:02.842Z,6.45
2022-08-05T10:32:54.150Z,7.13
2022-08-05T10:34:25.790Z,6.40
2022-08-05T10:37:00.618Z,8.52
2022-08-05T10:40:03.729Z,6.28
2022-08-05T10:42:33.934Z,7.90
2022-08-05T10:45:20.843Z,7.93
2022-08-05T10:48:27.624Z,10.15
2022-08-05T10:51:22.394Z,6.85
2022-08-05T10:53:56.212Z,7.70
2022-08-05T10:56:30.352Z,9.07
2022-08-05T10:59:12.693Z,8.88
2022-08-05T11:05:00.345Z,7.35
2022-08-05T11:07:33.305Z,7.70
2022-08-05T11:10:29.193Z,4.80
2022-08-05T11:12:59.435Z,10.73
2022-08-05T11:16:00.254Z,5.32
2022-08-05T11:18:32.280Z,6.80
2022-08-05T11:21:31.707Z,4.68
2022-08-05T11:24:50.719Z,6.30
2022-08-05T11:27:50.991Z,6.03
2022-08-05T11:30:22.262Z,5.70
2022-08-05T11:33:43.815Z,5.35
2022-08-05T11:36:52.870Z,10.07
2022-08-05T11:40:00.329Z,7.78
2022-08-05T11:42:40.469Z,4.50
2022-08-05T11:45:26.883Z,5.72
2022-08-05T11:48:22.752Z,6.35
2022-08-05T11:51:44.604Z,8.43
2022-08-05T11:54:40.643Z,7.85
2022-08-05T11:57:25.977Z,7.17
2022-08-05T12:00:02.650Z,11.98
2022-08-05T12:02:40.669Z,7.97
2022-08-05T12:05:36.460Z,7.18
2022-08-05T12:08:32.688Z,10.35
2022-08-05T12:11:10.367Z,6.47
2022-08-05T12:14:10.299Z,6.55
2022-08-05T12:16:47.237Z,8.93
2022-08-05T12:20:26.217Z,7.20
2022-08-05T12:22:09.440Z,5.53
2022-08-05T12:24:43.599Z,9.15
2022-08-05T12:27:25.522Z,7.05
2022-08-05T12:30:03.247Z,9.48
2022-08-05T12:32:34.441Z,6.60
2022-08-05T12:35:08.708Z,11.73
2022-08-05T12:37:37.423Z,11.45
2022-08-05T12:40:11.294Z,6.70
2022-08-05T12:42:56.410Z,8.10
2022-08-05T12:45:42.640Z,11.25
2022-08-05T12:48:32.258Z,9.48
2022-08-05T12:51:21.729Z,7.38
2022-08-05T12:54:02.194Z,9.68
2022-08-05T12:56:35.207Z,8.48
2022-08-05T12:59:27.289Z,7.63
2022-08-05T13:02:07.539Z,11.65
2022-08-05T13:04:41.822Z,9.38
2022-08-05T13:07:55.986Z,8.00
2022-08-05T13:10:13.629Z,7.53
2022-08-05T13:12:51.023Z,7.00
2022-08-05T13:15:35.922Z,9.25
2022-08-05T13:18:20.869Z,8.50
2022-08-05T13:20:50.461Z,12.60
2022-08-05T13:23:22.629Z,7.32
2022-08-05T13:25:59.743Z,9.98
2022-08-05T13:28:32.043Z,11.45
2022-08-05T13:31:03.380Z,9.05
2022-08-05T13:34:24.241Z,11.40
2022-08-05T13:36:31.062Z,6.10
2022-08-05T13:38:59.585Z,14.05
2022-08-05T13:41:36.028Z,14.73
2022-08-05T13:44:06.379Z,11.73
2022-08-05T13:47:01.952Z,9.70
2022-08-05T13:49:24.803Z,7.47
2022-08-05T13:51:54.112Z,7.85
2022-08-05T13:54:25.160Z,7.05
2022-08-05T13:56:54.748Z,7.65
2022-08-05T13:59:26.991Z,7.95
2022-08-05T14:01:58.414Z,8.95
2022-08-05T14:04:49.134Z,7.10
2022-08-05T14:07:25.559Z,8.45
2022-08-05T14:10:08.844Z,6.70
2022-08-05T14:12:37.899Z,5.95
2022-08-05T14:16:05.116Z,8.88
2022-08-05T14:17:57.789Z,5.30
2022-08-05T14:20:30.892Z,8.45
2022-08-05T14:22:59.514Z,6.65
2022-08-05T14:25:30.049Z,7.93
2022-08-05T14:27:59.067Z,6.93
2022-08-05T14:30:28.386Z,7.20
2022-08-05T14:32:58.924Z,8.57
2022-08-05T14:35:37.192Z,6.78
2022-08-05T14:38:27.717Z,5.95
2022-08-05T14:41:05.925Z,10.50
2022-08-05T14:44:02.083Z,6.50
2022-08-05T14:46:28.732Z,7.10
2022-08-05T14:49:03.429Z,7.90
2022-08-05T14:51:35.802Z,8.68
2022-08-05T14:54:26.637Z,9.90
2022-08-05T14:56:54.980Z,9.25
2022-08-05T14:59:23.648Z,5.78
2022-08-05T15:01:53.779Z,5.20
2022-08-05T15:04:27.423Z,7.00
2022-08-05T15:06:57.614Z,8.68
2022-08-05T15:09:52.259Z,14.45
2022-08-05T15:12:17.248Z,5.90
2022-08-05T15:14:50.312Z,4.43
2022-08-05T15:17:46.397Z,9.15
2022-08-05T15:20:18.320Z,8.60
2022-08-05T15:22:54.222Z,5.03
2022-08-05T15:25:40.957Z,5.03
2022-08-05T15:28:16.425Z,9.23
2022-08-05T15:30:45.900Z,4.88
2022-08-05T15:34:04.060Z,5.45
2022-08-05T15:36:05.332Z,10.20
2022-08-05T15:38:41.763Z,4.85
2022-08-05T15:41:22.782Z,9.68
2022-08-05T15:43:54.893Z,6.55
2022-08-05T15:46:24.929Z,9.27
2022-08-05T15:48:58.853Z,7.32
2022-08-05T15:52:13.080Z,14.20
2022-08-05T15:54:34.404Z,7.80
2022-08-05T15:57:07.720Z,9.27
2022-08-05T15:59:38.074Z,7.88
2022-08-05T16:02:09.420Z,7.82
2022-08-05T16:04:38.627Z,7.25
2022-08-05T16:07:10.645Z,6.97
2022-08-05T16:09:41.495Z,8.52
2022-08-05T16:12:12.610Z,7.63
2022-08-05T16:14:41.428Z,7.03
2022-08-05T16:17:10.486Z,7.60
2022-08-05T16:20:05.264Z,6.75
2022-08-05T16:22:34.120Z,6.13
2022-08-05T16:25:07.963Z,9.95
2022-08-05T16:28:00.361Z,6.88
2022-08-05T16:30:31.004Z,7.35
2022-08-05T16:33:01.302Z,7.93
2022-08-05T16:35:32.597Z,8.00
2022-08-05T16:38:18.881Z,10.35
2022-08-05T16:40:55.774Z,7.88
2022-08-05T16:43:32.044Z,11.82
2022-08-05T16:46:04.125Z,7.05
2022-08-05T16:51:09.437Z,11.00
2022-08-05T16:54:05.727Z,8.73
2022-08-05T16:56:29.626Z,10.63
2022-08-05T16:59:00.762Z,8.23
2022-08-05T17:01:52.860Z,7.97
2022-08-05T17:04:19.007Z,10.80
2022-08-05T17:06:53.230Z,11.02
2022-08-05T17:09:23.213Z,8.98
2022-08-05T17:11:59.268Z,8.82
2022-08-05T17:14:37.343Z,16.65
2022-08-05T17:17:14.255Z,16.02
2022-08-05T17:19:46.287Z,9.48
2022-08-05T17:22:24.418Z,11.57
2022-08-05T17:24:56.831Z,10.50
2022-08-05T17:27:33.965Z,13.20
2022-08-05T17:30:11.919Z,8.65
2022-08-05T17:32:47.426Z,9.73
2022-08-05T17:35:20.926Z,9.02
2022-08-05T17:37:50.588Z,8.00
2022-08-05T17:40:22.676Z,9.00
2022-08-05T17:42:53.522Z,10.02
2022-08-05T17:45:37.958Z,9.68
2022-08-05T17:48:08.996Z,11.88
2022-08-05T17:50:37.614Z,10.25
2022-08-05T17:53:08.573Z,12.65
2022-08-05T17:55:39.881Z,13.00
2022-08-05T17:58:13.567Z,13.45
2022-08-05T18:00:50.983Z,10.82
2022-08-05T18:06:15.026Z,14.13
2022-08-05T18:08:52.462Z,9.93
2022-08-05T18:11:24.712Z,13.82
2022-08-05T18:14:04.339Z,11.30
2022-08-05T18:16:46.964Z,14.13
2022-08-05T18:19:23.195Z,12.68
2022-08-05T18:22:09.379Z,13.98
2022-08-05T18:24:40.166Z,13.15
2022-08-05T18:27:12.434Z,12.48
2022-08-05T18:29:41.510Z,12.23
2022-08-05T18:32:12.994Z,16.15
2022-08-05T18:34:43.017Z,14.25
2022-08-05T18:37:12.682Z,13.70
2022-08-05T18:41:50.993Z,17.25
2022-08-05T18:42:49.910Z,20.20
2022-08-05T18:45:20.910Z,10.77
2022-08-05T18:47:56.343Z,15.45
2022-08-05T18:50:46.401Z,13.63
2022-08-05T18:53:20.852Z,13.23
2022-08-05T18:55:54.132Z,8.95
2022-08-05T18:58:28.660Z,16.77
2022-08-05T19:01:00.179Z,14.05
2022-08-05T19:03:55.685Z,11.73
2022-08-05T19:06:37.259Z,19.63
2022-08-05T19:09:10.235Z,19.30
2022-08-05T19:12:01.003Z,18.88
2022-08-05T19:14:52.260Z,14.32
2022-08-05T19:17:17.395Z,16.52
2022-08-05T19:19:49.913Z,14.60
2022-08-05T19:22:18.858Z,13.30
2022-08-05T19:25:00.813Z,15.88
2022-08-05T19:27:32.738Z,16.52
2022-08-05T19:30:03.038Z,12.32
2022-08-05T19:32:33.315Z,11.57
2022-08-05T19:35:05.870Z,16.35
2022-08-05T19:37:47.413Z,13.73
2022-08-05T19:40:24.495Z,19.35
2022-08-05T19:43:04.542Z,14.02
2022-08-05T19:45:36.846Z,15.48
2022-08-05T19:48:06.427Z,20.73
2022-08-05T19:50:36.856Z,15.00
2022-08-05T19:53:09.282Z,12.80
2022-08-05T19:56:13.926Z,17.83
2022-08-05T19:58:30.061Z,14.98
2022-08-05T20:00:58.972Z,18.55
2022-08-05T20:03:40.833Z,17.20
2022-08-05T20:06:15.925Z,16.45
2022-08-05T20:08:59.838Z,15.07
2022-08-05T20:11:37.761Z,14.50
2022-08-05T20:14:12.037Z,20.23
2022-08-05T20:16:41.349Z,16.15
2022-08-05T20:19:11.967Z,18.48
2022-08-05T20:21:46.512Z,16.23
2022-08-05T20:24:16.081Z,18.25
2022-08-05T20:26:47.553Z,16.52
2022-08-05T20:29:26.560Z,17.02
2022-08-05T20:31:58.355Z,18.73
2022-08-05T20:34:28.419Z,18.42
2022-08-05T20:36:58.681Z,13.60
2022-08-05T20:39:35.539Z,14.65
2022-08-05T20:44:40.181Z,13.35
2022-08-05T20:47:10.073Z,14.23
2022-08-05T20:49:42.252Z,14.38
2022-08-05T20:52:15.475Z,13.43
2022-08-05T20:55:15.788Z,14.30
2022-08-05T21:00:40.808Z,19.23
2022-08-05T21:03:07.821Z,13.68
2022-08-05T21:05:53.771Z,19.92
2022-08-05T21:08:27.938Z,13.45
2022-08-05T21:11:11.906Z,14.75
2022-08-05T21:13:47.420Z,22.33
2022-08-05T21:16:29.377Z,17.10
2022-08-05T21:19:00.912Z,15.10
2022-08-05T21:21:39.585Z,17.65
2022-08-05T21:24:15.824Z,18.95
2022-08-05T21:26:53.335Z,11.73
2022-08-05T21:29:26.545Z,13.05
2022-08-05T21:32:00.244Z,13.10
2022-08-05T21:34:29.097Z,16.40
2022-08-05T21:37:00.641Z,17.95
2022-08-05T21:39:34.451Z,13.63
2022-08-05T21:42:03.407Z,22.25
2022-08-05T21:44:32.047Z,15.23
2022-08-05T21:47:01.504Z,12.02
2022-08-05T21:49:56.861Z,16.45
2022-08-05T21:52:26.803Z,17.02
2022-08-05T21:55:06.450Z,17.83
2022-08-05T21:57:36.215Z,16.27
2022-08-05T22:00:10.798Z,18.13
2022-08-05T22:02:41.652Z,15.25
2022-08-05T22:05:11.822Z,12.95
2022-08-05T22:07:59.161Z,13.15
2022-08-05T22:10:32.212Z,15.98
2022-08-05T22:13:58.812Z,18.70
2022-08-05T22:15:56.641Z,15.27
2022-08-05T22:18:30.658Z,15.05
2022-08-05T22:21:00.605Z,17.25
2022-08-05T22:24:02.650Z,20.35
2022-08-05T22:29:26.140Z,14.80
2022-08-05T22:31:59.464Z,16.90
2022-08-05T22:34:31.935Z,15.70
2022-08-05T22:37:03.941Z,14.63
2022-08-05T22:39:34.810Z,14.90
2022-08-05T22:42:12.553Z,17.52
2022-08-05T22:44:53.595Z,18.35
2022-08-05T22:47:29.772Z,19.75
2022-08-05T22:50:20.111Z,13.52
2022-08-05T22:52:50.135Z,17.98
2022-08-05T22:55:21.306Z,13.93
2022-08-05T22:57:53.328Z,15.48
2022-08-05T23:00:23.481Z,19.88
2022-08-05T23:02:53.828Z,16.48
2022-08-05T23:05:23.527Z,14.68
2022-08-05T23:07:53.552Z,21.50
2022-08-05T23:10:23.541Z,14.98
2022-08-05T23:12:55.807Z,15.00
2022-08-05T23:15:26.936Z,16.35
2022-08-05T23:18:00.627Z,16.20
2022-08-05T23:20:32.095Z,15.48
2022-08-05T23:23:03.634Z,20.45
2022-08-05T23:25:52.670Z,20.45
2022-08-05T23:28:29.104Z,19.08
2022-08-05T23:31:15.942Z,15.75
2022-08-05T23:34:03.828Z,22.05
2022-08-05T23:39:17.161Z,17.25
2022-08-05T23:41:52.770Z,18.50
2022-08-05T23:44:27.998Z,16.80
2022-08-05T23:47:02.555Z,20.88
2022-08-05T23:49:43.580Z,17.17
2022-08-05T23:52:31.638Z,15.50
2022-08-05T23:55:02.276Z,19.05
2022-08-05T23:57:34.111Z,16.63
